aviador You're here:

UGTB Decoded Metar

TBILISI/NOVO-AL in GEORGIA
Report Time2018-07-22 12:30:00
UTC Time2018-07-22 12:46:11
Flight Rules vfr VFR
Wind190° at 05 kt
W.Decomp.*RWY 13: 2.8 kt HW 4.1 kt RCW
W.Rank190° ranks 23
Current wind is above 190° avg. (4.7)
Visibility9999 m
Phenomena:N/A
Clouds:Scattered CB 045 Hf
Expected CloudBase > 3,200 ft AGL from Temp-Dew spread
CeilingNone
Temp27°C (ISA +15)
Dew Point19°C (62% RH)
Heat Index28.2°C
QNH1010 hPa
Density Alt3,773 ft
Elevation1,624 ft
Report Wrong Elevation
Raw Report
METAR UGTB 221230Z 19005KT 130V230 9999 SCT045CB 27/19 Q1010 NOSIG=

Extra information for UGTB:More info

Metar Taf Metar & Taf Last 4 Metars F.Rules Stats Wind Profile Meteogram Temp Stats Airport Information Weather charts Add Link Nearby VenuesMetar ALERT Operation Metar Decoded Social comments